Time;durP1;ratioP1;P1;durP2;ratioP2;P2;SDS_P1;SDS_P2;PMS_P1;PMS_P2;Temp;Humidity;BMP_temperature;BMP_pressure;BME280_temperature;BME280_humidity;BME280_pressure;Samples;Min_cycle;Max_cycle;Signal;HPM_P1;HPM_P2
2022/01/09 00:02:02;;;;;;;22.38;6.70;;;;;;;;;;4663594;30;20058;-67
2022/01/09 00:04:34;;;;;;;21.30;6.28;;;;;;;;;;4667779;30;20054;-68
2022/01/09 00:07:04;;;;;;;19.92;6.05;;;;;;;;;;4681998;30;20069;-67
2022/01/09 00:09:35;;;;;;;15.23;4.80;;;;;;;;;;4671995;30;20066;-68
2022/01/09 00:12:07;;;;;;;11.95;4.40;;;;;;;;;;4630514;30;20179;-67
2022/01/09 00:14:40;;;;;;;16.38;4.28;;;;;;;;;;4652469;30;20058;-68
2022/01/09 00:17:13;;;;;;;12.98;3.50;;;;;;;;;;4661220;30;20424;-67
2022/01/09 00:19:46;;;;;;;17.90;4.38;;;;;;;;;;4678646;30;20053;-68
2022/01/09 00:22:20;;;;;;;14.88;3.13;;;;;;;;;;4686536;30;20427;-67
2022/01/09 00:24:51;;;;;;;13.57;3.78;;;;;;;;;;4687226;30;20627;-70
2022/01/09 00:27:21;;;;;;;11.25;3.75;;;;;;;;;;4681174;30;20058;-69
2022/01/09 00:29:51;;;;;;;17.13;3.00;;;;;;;;;;4691312;30;20057;-67
2022/01/09 00:32:21;;;;;;;12.90;2.58;;;;;;;;;;4696171;30;20108;-68
2022/01/09 00:34:52;;;;;;;7.28;2.63;;;;;;;;;;4689821;30;20431;-68
2022/01/09 00:37:22;;;;;;;15.80;3.08;;;;;;;;;;4690287;30;20070;-68
2022/01/09 00:39:52;;;;;;;10.80;2.80;;;;;;;;;;4700359;30;20072;-67
2022/01/09 00:42:23;;;;;;;9.20;2.80;;;;;;;;;;4705525;30;20057;-68
2022/01/09 00:44:54;;;;;;;10.05;2.83;;;;;;;;;;4682693;30;20050;-68
2022/01/09 00:47:24;;;;;;;16.13;2.50;;;;;;;;;;4655404;30;20066;-70
2022/01/09 00:49:54;;;;;;;9.48;2.63;;;;;;;;;;4629293;30;20525;-68
2022/01/09 00:52:25;;;;;;;6.22;1.98;;;;;;;;;;4622055;30;20079;-67
2022/01/09 00:54:55;;;;;;;11.85;2.55;;;;;;;;;;4627838;30;20572;-67
2022/01/09 00:57:29;;;;;;;5.93;2.67;;;;;;;;;;4625747;30;20579;-67
2022/01/09 01:00:00;;;;;;;9.07;2.92;;;;;;;;;;4607158;31;20538;-67
2022/01/09 01:02:30;;;;;;;8.60;2.42;;;;;;;;;;4612097;31;20506;-67
2022/01/09 01:05:01;;;;;;;5.43;2.10;;;;;;;;;;4612402;31;20075;-68
2022/01/09 01:07:32;;;;;;;10.13;2.10;;;;;;;;;;4637357;30;20055;-69
2022/01/09 01:10:03;;;;;;;12.40;2.22;;;;;;;;;;4639514;30;20517;-67
2022/01/09 01:12:34;;;;;;;10.95;2.40;;;;;;;;;;4646602;30;20077;-67
2022/01/09 01:15:05;;;;;;;8.85;2.10;;;;;;;;;;4645800;30;20055;-68
2022/01/09 01:17:37;;;;;;;10.90;2.13;;;;;;;;;;4665251;30;20069;-67
2022/01/09 01:20:08;;;;;;;8.13;2.15;;;;;;;;;;4681888;30;20065;-67
2022/01/09 01:22:40;;;;;;;16.52;2.20;;;;;;;;;;4696247;30;20061;-69
2022/01/09 01:25:11;;;;;;;7.95;2.70;;;;;;;;;;4697198;30;20070;-67
2022/01/09 01:27:42;;;;;;;8.30;2.97;;;;;;;;;;4720708;30;20652;-67
2022/01/09 01:30:13;;;;;;;6.90;2.47;;;;;;;;;;4731662;30;20076;-67
2022/01/09 01:32:44;;;;;;;6.28;2.17;;;;;;;;;;4713568;30;20053;-68
2022/01/09 01:35:15;;;;;;;9.55;2.47;;;;;;;;;;4659835;30;20069;-68
2022/01/09 01:37:46;;;;;;;8.55;2.40;;;;;;;;;;4643039;30;20460;-68
2022/01/09 01:40:18;;;;;;;7.72;2.47;;;;;;;;;;4658784;30;20063;-68
2022/01/09 01:42:49;;;;;;;7.57;2.10;;;;;;;;;;4662176;30;20066;-67
2022/01/09 01:45:19;;;;;;;9.13;2.70;;;;;;;;;;4661620;30;20139;-68
2022/01/09 01:47:51;;;;;;;11.57;3.08;;;;;;;;;;4641704;30;20402;-68
2022/01/09 01:50:21;;;;;;;6.80;2.40;;;;;;;;;;4653594;30;20447;-68
2022/01/09 01:52:53;;;;;;;9.00;2.30;;;;;;;;;;4662446;30;20093;-70
2022/01/09 01:55:24;;;;;;;6.78;2.25;;;;;;;;;;4628860;30;20080;-68
2022/01/09 01:57:55;;;;;;;8.02;2.63;;;;;;;;;;4645487;30;20062;-67
2022/01/09 02:00:26;;;;;;;7.68;2.60;;;;;;;;;;4654834;30;20054;-67
2022/01/09 02:02:59;;;;;;;9.80;2.42;;;;;;;;;;4645784;30;20071;-67
2022/01/09 02:05:30;;;;;;;4.30;1.52;;;;;;;;;;4645566;30;20582;-68
2022/01/09 02:08:04;;;;;;;5.80;1.65;;;;;;;;;;4664765;30;20058;-68
2022/01/09 02:10:34;;;;;;;4.22;1.90;;;;;;;;;;4660126;30;20521;-69
2022/01/09 02:13:04;;;;;;;3.85;1.20;;;;;;;;;;4659369;30;20150;-67
2022/01/09 02:15:44;;;;;;;2.00;1.25;;;;;;;;;;4662056;30;20061;-67
2022/01/09 02:18:21;;;;;;;7.80;1.60;;;;;;;;;;4663114;30;20532;-68
2022/01/09 02:20:52;;;;;;;3.65;1.10;;;;;;;;;;4661801;30;20066;-64
2022/01/09 02:23:23;;;;;;;3.70;1.45;;;;;;;;;;4645323;30;20063;-67
2022/01/09 02:25:53;;;;;;;6.20;1.60;;;;;;;;;;4645075;30;20646;-66
2022/01/09 02:28:26;;;;;;;2.63;1.23;;;;;;;;;;4645150;30;20065;-64
2022/01/09 02:30:56;;;;;;;7.82;1.17;;;;;;;;;;4645300;30;20065;-67
2022/01/09 02:33:26;;;;;;;3.45;1.17;;;;;;;;;;4645451;30;20070;-68
2022/01/09 02:35:57;;;;;;;3.70;1.08;;;;;;;;;;4633677;30;20070;-66
2022/01/09 02:38:27;;;;;;;6.45;1.00;;;;;;;;;;4611338;31;20055;-66
2022/01/09 02:40:58;;;;;;;4.72;1.20;;;;;;;;;;4628007;30;20055;-66
2022/01/09 02:43:29;;;;;;;5.10;1.05;;;;;;;;;;4628275;30;20432;-67
2022/01/09 02:46:36;;;;;;;2.35;0.88;;;;;;;;;;4627856;30;20064;-65
2022/01/09 02:49:08;;;;;;;2.83;1.20;;;;;;;;;;4658806;30;20058;-67
2022/01/09 02:51:45;;;;;;;6.15;1.83;;;;;;;;;;4661804;30;20059;-69
2022/01/09 02:57:04;;;;;;;7.40;1.35;;;;;;;;;;4644971;30;20079;-68
2022/01/09 02:59:35;;;;;;;4.28;1.55;;;;;;;;;;4641791;30;20066;-66
2022/01/09 03:02:05;;;;;;;4.22;1.23;;;;;;;;;;4641720;30;20067;-63
2022/01/09 03:04:36;;;;;;;5.18;1.20;;;;;;;;;;4658480;30;20066;-66
2022/01/09 03:07:07;;;;;;;4.00;1.20;;;;;;;;;;4645015;30;20063;-66
2022/01/09 03:09:37;;;;;;;5.07;1.25;;;;;;;;;;4636650;30;20059;-66
2022/01/09 03:12:13;;;;;;;4.18;1.00;;;;;;;;;;4641268;30;20059;-65
2022/01/09 03:14:43;;;;;;;3.08;1.00;;;;;;;;;;4644630;30;20066;-66
2022/01/09 03:17:13;;;;;;;4.65;0.98;;;;;;;;;;4627253;30;20426;-63
2022/01/09 03:19:48;;;;;;;4.70;1.50;;;;;;;;;;4614590;31;20149;-67
2022/01/09 03:22:21;;;;;;;3.72;1.30;;;;;;;;;;4658224;30;20059;-67
2022/01/09 03:24:52;;;;;;;4.78;1.23;;;;;;;;;;4644942;30;20059;-67
2022/01/09 03:27:22;;;;;;;10.05;2.00;;;;;;;;;;4632853;30;20059;-68
2022/01/09 03:29:53;;;;;;;2.33;0.68;;;;;;;;;;4661623;30;20168;-64
2022/01/09 03:32:25;;;;;;;6.75;1.02;;;;;;;;;;4675463;30;20066;-66
2022/01/09 03:34:55;;;;;;;6.28;1.20;;;;;;;;;;4637462;30;20070;-68
2022/01/09 03:37:25;;;;;;;4.38;1.00;;;;;;;;;;4658601;30;20517;-69
2022/01/09 03:39:56;;;;;;;2.50;0.80;;;;;;;;;;4644666;30;20074;-69
2022/01/09 03:42:27;;;;;;;5.18;0.85;;;;;;;;;;4644375;30;20063;-63
2022/01/09 03:44:57;;;;;;;9.15;1.02;;;;;;;;;;4629422;30;20066;-65
2022/01/09 03:47:28;;;;;;;2.85;1.40;;;;;;;;;;4627755;31;20066;-67
2022/01/09 03:49:58;;;;;;;4.82;0.82;;;;;;;;;;4627289;31;20109;-66
2022/01/09 03:52:29;;;;;;;5.57;1.15;;;;;;;;;;4627347;31;20060;-67
2022/01/09 03:55:00;;;;;;;7.40;1.30;;;;;;;;;;4645705;30;20059;-66
2022/01/09 03:57:30;;;;;;;2.92;1.17;;;;;;;;;;4670774;30;20050;-67
2022/01/09 04:00:01;;;;;;;2.28;1.20;;;;;;;;;;4674080;30;20066;-63
2022/01/09 04:02:32;;;;;;;3.72;1.42;;;;;;;;;;4698719;30;20061;-68
2022/01/09 04:05:02;;;;;;;2.55;1.20;;;;;;;;;;4707423;30;20081;-64
2022/01/09 04:07:33;;;;;;;3.80;1.15;;;;;;;;;;4680944;30;20066;-66
2022/01/09 04:10:05;;;;;;;4.20;0.90;;;;;;;;;;4664383;30;20073;-67
2022/01/09 04:12:47;;;;;;;5.65;1.15;;;;;;;;;;4698619;30;20062;-68
2022/01/09 04:15:18;;;;;;;5.30;0.90;;;;;;;;;;4689120;30;20057;-70
2022/01/09 04:17:52;;;;;;;3.38;1.20;;;;;;;;;;4681604;30;20582;-67
2022/01/09 04:20:24;;;;;;;4.88;1.33;;;;;;;;;;4715720;30;20064;-68
2022/01/09 04:22:55;;;;;;;;;;;;;;;;;;4706299;30;20065;-68
2022/01/09 04:25:26;;;;;;;4.50;1.17;;;;;;;;;;4680665;30;20309;-66
2022/01/09 04:27:56;;;;;;;4.28;1.70;;;;;;;;;;4715845;30;20079;-67
2022/01/09 04:30:26;;;;;;;7.40;1.30;;;;;;;;;;4705053;30;20065;-68
2022/01/09 04:32:57;;;;;;;7.57;1.38;;;;;;;;;;4709120;30;20061;-67
2022/01/09 04:35:27;;;;;;;3.35;1.33;;;;;;;;;;4726818;30;20064;-67
2022/01/09 04:37:58;;;;;;;6.57;1.13;;;;;;;;;;4733394;30;20061;-68
2022/01/09 04:40:29;;;;;;;6.43;1.30;;;;;;;;;;4722802;30;20730;-68
2022/01/09 04:43:01;;;;;;;7.07;1.30;;;;;;;;;;4713073;30;20065;-67
2022/01/09 04:45:32;;;;;;;4.32;1.30;;;;;;;;;;4744094;30;20502;-69
2022/01/09 04:48:06;;;;;;;4.30;1.40;;;;;;;;;;4783044;29;20056;-68
2022/01/09 04:50:39;;;;;;;4.75;1.00;;;;;;;;;;4738493;30;20063;-71
2022/01/09 04:53:09;;;;;;;5.90;1.38;;;;;;;;;;4754061;30;20067;-68
2022/01/09 04:55:45;;;;;;;6.63;1.58;;;;;;;;;;4750304;30;20056;-67
2022/01/09 04:58:16;;;;;;;6.57;1.50;;;;;;;;;;4761130;30;20064;-68
2022/01/09 05:00:47;;;;;;;7.45;1.45;;;;;;;;;;4750202;30;20060;-68
2022/01/09 05:03:19;;;;;;;5.40;1.30;;;;;;;;;;4750773;30;20064;-67
2022/01/09 05:05:50;;;;;;;6.38;1.70;;;;;;;;;;4729973;30;20064;-67
2022/01/09 05:08:20;;;;;;;4.28;1.42;;;;;;;;;;4732416;30;20060;-68
2022/01/09 05:10:50;;;;;;;5.40;1.25;;;;;;;;;;4732744;30;20061;-69
2022/01/09 05:13:20;;;;;;;3.95;1.20;;;;;;;;;;4732914;30;20084;-68
2022/01/09 05:15:51;;;;;;;6.07;1.23;;;;;;;;;;4732638;30;20061;-67
2022/01/09 05:18:21;;;;;;;3.13;1.00;;;;;;;;;;4718246;30;20068;-67
2022/01/09 05:20:52;;;;;;;5.15;1.13;;;;;;;;;;4717946;30;20506;-67
2022/01/09 05:23:22;;;;;;;5.13;1.10;;;;;;;;;;4723076;30;20065;-67
2022/01/09 05:25:52;;;;;;;6.13;1.40;;;;;;;;;;4700263;30;20076;-68
2022/01/09 05:28:23;;;;;;;7.88;1.40;;;;;;;;;;4714668;30;20061;-68
2022/01/09 05:30:53;;;;;;;8.10;1.40;;;;;;;;;;4714941;30;20061;-68
2022/01/09 05:33:23;;;;;;;5.43;1.30;;;;;;;;;;4706120;30;20068;-65
2022/01/09 05:35:53;;;;;;;5.18;1.50;;;;;;;;;;4697459;30;20065;-67
2022/01/09 05:38:24;;;;;;;6.75;1.20;;;;;;;;;;4705906;30;20057;-65
2022/01/09 05:40:54;;;;;;;3.33;1.10;;;;;;;;;;4714408;30;20523;-67
2022/01/09 05:43:24;;;;;;;6.47;1.27;;;;;;;;;;4700940;30;20593;-71
2022/01/09 05:45:55;;;;;;;6.20;1.35;;;;;;;;;;4714779;30;20065;-67
2022/01/09 05:48:25;;;;;;;8.77;2.03;;;;;;;;;;4723215;30;20072;-68
2022/01/09 05:50:55;;;;;;;5.60;1.40;;;;;;;;;;4749303;30;20060;-67
2022/01/09 05:53:26;;;;;;;5.88;1.55;;;;;;;;;;4735759;30;20064;-66
2022/01/09 05:55:56;;;;;;;6.22;1.35;;;;;;;;;;4750361;30;20067;-66
2022/01/09 05:58:26;;;;;;;3.45;1.17;;;;;;;;;;4742698;30;20056;-66
2022/01/09 06:00:57;;;;;;;4.18;1.27;;;;;;;;;;4764247;30;20063;-65
2022/01/09 06:03:27;;;;;;;5.60;1.20;;;;;;;;;;4731808;30;20053;-68
2022/01/09 06:05:58;;;;;;;6.97;1.30;;;;;;;;;;4685104;30;20419;-67
2022/01/09 06:08:28;;;;;;;5.35;1.05;;;;;;;;;;4714892;30;20069;-68
2022/01/09 06:10:59;;;;;;;4.22;1.10;;;;;;;;;;4710992;30;20104;-68
2022/01/09 06:13:29;;;;;;;3.53;1.35;;;;;;;;;;4693495;30;20061;-67
2022/01/09 06:16:00;;;;;;;10.40;1.25;;;;;;;;;;4679763;30;20066;-68
2022/01/09 06:18:30;;;;;;;4.65;1.35;;;;;;;;;;4659570;30;20531;-67
2022/01/09 06:21:00;;;;;;;6.53;1.33;;;;;;;;;;4696753;30;20516;-67
2022/01/09 06:23:31;;;;;;;5.60;1.33;;;;;;;;;;4696610;30;20178;-68
2022/01/09 06:26:01;;;;;;;5.80;1.17;;;;;;;;;;4696571;30;20053;-67
2022/01/09 06:28:31;;;;;;;8.98;1.67;;;;;;;;;;4705655;30;20423;-68
2022/01/09 06:31:02;;;;;;;5.82;0.98;;;;;;;;;;4678958;30;20443;-68
2022/01/09 06:33:32;;;;;;;4.28;1.20;;;;;;;;;;4679436;30;20070;-68
2022/01/09 06:36:03;;;;;;;5.95;1.48;;;;;;;;;;4671229;30;20069;-67
2022/01/09 06:38:33;;;;;;;5.63;1.40;;;;;;;;;;4662586;30;20555;-68
2022/01/09 06:41:04;;;;;;;4.68;1.10;;;;;;;;;;4678654;30;20072;-73
2022/01/09 06:43:34;;;;;;;5.30;0.90;;;;;;;;;;4684378;30;20455;-67
2022/01/09 06:46:05;;;;;;;6.00;2.53;;;;;;;;;;4679388;30;20419;-68
2022/01/09 06:48:35;;;;;;;7.32;1.25;;;;;;;;;;4679429;30;20463;-66
2022/01/09 06:51:05;;;;;;;2.17;1.08;;;;;;;;;;4696698;30;20111;-67
2022/01/09 06:53:35;;;;;;;7.07;0.90;;;;;;;;;;4696528;30;20636;-68
2022/01/09 06:56:06;;;;;;;8.40;1.63;;;;;;;;;;4696613;30;20395;-68
2022/01/09 06:58:39;;;;;;;7.20;1.20;;;;;;;;;;4696529;30;20065;-72
2022/01/09 07:01:09;;;;;;;4.55;1.38;;;;;;;;;;4696777;30;20071;-68
2022/01/09 07:03:39;;;;;;;5.53;1.15;;;;;;;;;;4696237;30;20066;-68
2022/01/09 07:06:11;;;;;;;5.28;1.10;;;;;;;;;;4704818;30;20061;-70
2022/01/09 07:08:41;;;;;;;9.82;1.40;;;;;;;;;;4707895;30;20069;-68
2022/01/09 07:11:11;;;;;;;3.70;1.10;;;;;;;;;;4731096;30;20068;-67
2022/01/09 07:13:41;;;;;;;6.50;1.05;;;;;;;;;;4695930;30;20066;-68
2022/01/09 07:16:12;;;;;;;3.72;1.10;;;;;;;;;;4696354;30;20070;-68
2022/01/09 07:18:43;;;;;;;3.42;1.35;;;;;;;;;;4696276;30;20070;-68
2022/01/09 07:21:13;;;;;;;7.10;1.20;;;;;;;;;;4696326;30;20170;-68
2022/01/09 07:23:43;;;;;;;7.72;1.58;;;;;;;;;;4713369;30;20064;-68
2022/01/09 07:26:14;;;;;;;7.82;1.33;;;;;;;;;;4713611;30;20068;-67
2022/01/09 07:28:45;;;;;;;2.88;0.63;;;;;;;;;;4713576;30;20541;-68
2022/01/09 07:31:15;;;;;;;7.15;1.40;;;;;;;;;;4713497;30;20061;-68
2022/01/09 07:33:45;;;;;;;3.63;1.10;;;;;;;;;;4713688;30;20088;-68
2022/01/09 07:36:18;;;;;;;4.15;1.30;;;;;;;;;;4716743;30;20076;-68
2022/01/09 07:38:49;;;;;;;4.85;1.52;;;;;;;;;;4716975;30;21189;-68
2022/01/09 07:41:20;;;;;;;4.85;1.25;;;;;;;;;;4725966;30;20057;-68
2022/01/09 07:43:50;;;;;;;7.28;1.20;;;;;;;;;;4734444;30;20060;-70
2022/01/09 07:46:21;;;;;;;5.40;1.48;;;;;;;;;;4734588;30;20060;-68
2022/01/09 07:48:52;;;;;;;7.70;1.48;;;;;;;;;;4728143;30;20072;-68
2022/01/09 07:51:22;;;;;;;5.00;1.85;;;;;;;;;;4752417;30;20138;-70
2022/01/09 07:54:12;;;;;;;7.10;1.00;;;;;;;;;;4769851;30;20052;-67
2022/01/09 07:56:43;;;;;;;5.30;1.20;;;;;;;;;;4769877;30;20051;-69
2022/01/09 07:59:13;;;;;;;5.55;1.48;;;;;;;;;;4789910;29;20051;-68
2022/01/09 08:01:50;;;;;;;7.07;1.48;;;;;;;;;;4779004;29;20073;-68
2022/01/09 08:04:20;;;;;;;3.70;1.10;;;;;;;;;;4825675;29;20509;-68
2022/01/09 08:06:51;;;;;;;3.00;1.00;;;;;;;;;;4824536;29;20047;-68
2022/01/09 08:09:21;;;;;;;4.63;1.15;;;;;;;;;;4825808;29;20412;-68
2022/01/09 08:11:52;;;;;;;4.70;1.13;;;;;;;;;;4825448;29;20519;-68
2022/01/09 08:14:22;;;;;;;7.25;1.20;;;;;;;;;;4793423;29;20063;-68
2022/01/09 08:16:53;;;;;;;3.85;1.25;;;;;;;;;;4825384;29;20496;-68
2022/01/09 08:19:23;;;;;;;4.82;1.35;;;;;;;;;;4778573;29;20058;-68
2022/01/09 08:21:53;;;;;;;5.65;1.20;;;;;;;;;;4825452;29;20057;-69
2022/01/09 08:24:23;;;;;;;6.80;1.10;;;;;;;;;;4825456;29;20077;-68
2022/01/09 08:26:54;;;;;;;6.43;1.10;;;;;;;;;;4825660;29;20058;-68
2022/01/09 08:29:24;;;;;;;4.03;1.20;;;;;;;;;;4792849;29;20519;-69
2022/01/09 08:31:55;;;;;;;3.78;1.25;;;;;;;;;;4825403;29;20073;-67
2022/01/09 08:34:25;;;;;;;4.95;1.17;;;;;;;;;;4825203;29;20054;-68
2022/01/09 08:36:56;;;;;;;6.35;1.40;;;;;;;;;;4825237;29;20050;-68
2022/01/09 08:39:26;;;;;;;5.00;1.25;;;;;;;;;;4793371;29;20054;-72
2022/01/09 08:41:57;;;;;;;5.65;1.25;;;;;;;;;;4825093;29;20496;-68
2022/01/09 10:07:24;;;;;;;2.97;0.95;;;;;;;;;;5018262;27;3156877;-66
2022/01/09 10:09:57;;;;;;;5.00;0.82;;;;;;;;;;5056837;28;20412;-64
2022/01/09 10:12:30;;;;;;;3.97;1.50;;;;;;;;;;5073895;28;20394;-64
2022/01/09 10:15:04;;;;;;;5.38;1.42;;;;;;;;;;5090715;28;20055;-64
2022/01/09 10:17:41;;;;;;;7.95;1.25;;;;;;;;;;5073962;28;20490;-65
2022/01/09 10:20:17;;;;;;;4.75;0.80;;;;;;;;;;5056806;28;20410;-65
2022/01/09 10:22:55;;;;;;;6.00;1.35;;;;;;;;;;5107516;28;20048;-64
2022/01/09 10:25:37;;;;;;;5.07;1.77;;;;;;;;;;5090382;28;20044;-65
2022/01/09 10:28:21;;;;;;;3.20;1.20;;;;;;;;;;5090915;28;20050;-64
2022/01/09 10:30:52;;;;;;;6.03;1.45;;;;;;;;;;5091793;28;20055;-64
2022/01/09 10:33:26;;;;;;;5.32;1.30;;;;;;;;;;5107275;28;20063;-64
2022/01/09 10:35:58;;;;;;;4.25;1.20;;;;;;;;;;5109580;28;20044;-65
2022/01/09 10:38:29;;;;;;;6.80;1.35;;;;;;;;;;5090334;28;20059;-64
2022/01/09 10:41:04;;;;;;;4.90;0.70;;;;;;;;;;5073962;28;20395;-65
2022/01/09 10:43:37;;;;;;;5.25;1.50;;;;;;;;;;5109397;28;20044;-64
2022/01/09 10:46:09;;;;;;;1.83;0.68;;;;;;;;;;5090230;28;20411;-64
2022/01/09 10:48:42;;;;;;;4.55;1.27;;;;;;;;;;5057517;28;20546;-65
2022/01/09 10:51:14;;;;;;;5.40;1.30;;;;;;;;;;5084006;28;20495;-64
2022/01/09 10:53:45;;;;;;;5.43;1.83;;;;;;;;;;5078405;28;20055;-64
2022/01/09 10:56:21;;;;;;;4.93;1.33;;;;;;;;;;5098932;28;20040;-65
2022/01/09 10:58:57;;;;;;;3.17;1.35;;;;;;;;;;5081038;28;20067;-65
2022/01/09 11:01:29;;;;;;;5.03;1.27;;;;;;;;;;5045164;28;20044;-65
2022/01/09 11:04:04;;;;;;;3.25;1.27;;;;;;;;;;5096314;28;20052;-65
2022/01/09 11:06:38;;;;;;;5.03;1.45;;;;;;;;;;5052770;28;20055;-64
2022/01/09 11:09:09;;;;;;;7.57;1.55;;;;;;;;;;5108825;28;20048;-65
2022/01/09 11:11:43;;;;;;;6.63;2.45;;;;;;;;;;5056851;28;20533;-64
2022/01/09 11:14:18;;;;;;;5.22;1.70;;;;;;;;;;5123278;28;20048;-65
2022/01/09 11:16:54;;;;;;;6.72;1.50;;;;;;;;;;5040739;28;20056;-65
2022/01/09 11:19:25;;;;;;;3.42;1.33;;;;;;;;;;5058020;28;20044;-66
2022/01/09 11:22:02;;;;;;;3.83;1.90;;;;;;;;;;5061127;28;20051;-65
2022/01/09 11:24:51;;;;;;;4.22;2.72;;;;;;;;;;5042266;28;20044;-64
2022/01/09 11:27:25;;;;;;;3.47;1.27;;;;;;;;;;5025572;28;20051;-65
2022/01/09 11:30:39;;;;;;;3.70;1.50;;;;;;;;;;5058825;28;20039;-65
2022/01/09 11:33:40;;;;;;;4.05;1.08;;;;;;;;;;4998567;28;20056;-65
2022/01/09 11:36:13;;;;;;;4.95;1.65;;;;;;;;;;4983304;28;20076;-65
2022/01/09 11:38:56;;;;;;;3.78;1.17;;;;;;;;;;5015307;28;20054;-65
2022/01/09 11:41:29;;;;;;;5.05;1.30;;;;;;;;;;5015008;28;20049;-66
2022/01/09 11:44:06;;;;;;;6.75;1.50;;;;;;;;;;5031911;28;20054;-66
2022/01/09 11:47:04;;;;;;;5.22;1.50;;;;;;;;;;5014898;28;20056;-65
2022/01/09 11:50:00;;;;;;;3.08;0.80;;;;;;;;;;4953489;29;20411;-66
2022/01/09 11:52:31;;;;;;;3.30;2.42;;;;;;;;;;4937112;29;20048;-65
2022/01/09 11:55:05;;;;;;;6.30;1.30;;;;;;;;;;4936617;29;20043;-65
2022/01/09 11:57:45;;;;;;;6.63;1.40;;;;;;;;;;4935884;29;20047;-65
2022/01/09 12:00:38;;;;;;;3.65;1.30;;;;;;;;;;4952604;29;20128;-65
2022/01/09 12:03:26;;;;;;;4.60;1.10;;;;;;;;;;4952851;29;20066;-66
2022/01/09 12:06:08;;;;;;;3.67;1.02;;;;;;;;;;4937078;29;20534;-66
2022/01/09 13:29:57;;;;;;;4.55;0.82;;;;;;;;;;5043463;27;3105745;-65
2022/01/09 13:32:28;;;;;;;5.25;2.08;;;;;;;;;;5086834;28;20047;-65
2022/01/09 13:34:58;;;;;;;3.83;1.42;;;;;;;;;;4998517;28;20053;-66
2022/01/09 13:37:31;;;;;;;3.72;1.83;;;;;;;;;;5046607;28;20492;-67
2022/01/09 13:40:02;;;;;;;5.00;1.50;;;;;;;;;;5013757;28;20060;-65
2022/01/09 13:42:34;;;;;;;4.82;3.17;;;;;;;;;;4981687;28;20080;-65
2022/01/09 13:45:11;;;;;;;2.92;1.00;;;;;;;;;;5009465;28;20433;-66
2022/01/09 13:47:43;;;;;;;4.88;1.50;;;;;;;;;;4977234;28;20188;-65
2022/01/09 13:50:20;;;;;;;4.75;1.85;;;;;;;;;;4995973;28;20547;-66
2022/01/09 13:52:53;;;;;;;3.78;1.17;;;;;;;;;;4995758;28;20057;-65
2022/01/09 13:55:26;;;;;;;5.03;1.00;;;;;;;;;;5045615;28;20049;-65
2022/01/09 13:58:03;;;;;;;3.75;1.00;;;;;;;;;;5046250;28;20511;-66
2022/01/09 14:00:44;;;;;;;6.70;1.63;;;;;;;;;;5014204;28;20131;-66
2022/01/09 14:03:27;;;;;;;3.00;0.93;;;;;;;;;;5013281;28;20049;-67
2022/01/09 14:05:58;;;;;;;4.25;0.98;;;;;;;;;;4963385;28;20054;-66
2022/01/09 14:08:38;;;;;;;5.25;2.47;;;;;;;;;;5013461;28;20049;-66
2022/01/09 14:11:09;;;;;;;5.22;1.23;;;;;;;;;;5013185;28;20377;-66
2022/01/09 14:13:42;;;;;;;3.47;0.85;;;;;;;;;;5050021;28;20499;-65
2022/01/09 14:16:14;;;;;;;4.75;0.82;;;;;;;;;;5038075;28;20052;-67
2022/01/09 14:18:44;;;;;;;;;;;;;;;;;;5053720;28;20059;-65
2022/01/09 14:21:16;;;;;;;4.28;1.10;;;;;;;;;;5088823;28;20322;-64
2022/01/09 14:23:51;;;;;;;23.20;13.88;;;;;;;;;;5037272;28;20514;-64
2022/01/09 14:26:23;;;;;;;2.45;0.80;;;;;;;;;;5086446;28;20407;-63
2022/01/09 14:28:54;;;;;;;6.82;1.70;;;;;;;;;;5069478;28;20044;-65
2022/01/09 14:31:25;;;;;;;4.97;2.08;;;;;;;;;;5036129;28;20048;-67
2022/01/09 14:33:59;;;;;;;11.85;5.85;;;;;;;;;;5053778;28;20059;-65
2022/01/09 14:36:32;;;;;;;3.20;1.23;;;;;;;;;;5020726;28;20123;-66
2022/01/09 14:39:05;;;;;;;3.15;1.15;;;;;;;;;;5085339;28;20499;-68
2022/01/09 14:41:37;;;;;;;5.82;2.20;;;;;;;;;;5056165;28;20055;-65
2022/01/09 14:44:08;;;;;;;;;;;;;;;;;;5040009;28;20061;-65
2022/01/09 14:46:39;;;;;;;3.80;1.02;;;;;;;;;;5074686;28;20417;-65
2022/01/09 14:49:10;;;;;;;5.57;1.77;;;;;;;;;;5008361;28;20056;-66
2022/01/09 14:51:40;;;;;;;5.80;1.98;;;;;;;;;;5072063;28;20060;-66
2022/01/09 14:54:10;;;;;;;6.50;1.25;;;;;;;;;;5055980;28;20052;-65
2022/01/09 14:56:40;;;;;;;3.38;1.10;;;;;;;;;;5039182;28;20056;-66
2022/01/09 14:59:11;;;;;;;5.72;1.98;;;;;;;;;;5042071;28;20059;-65
2022/01/09 15:01:41;;;;;;;7.75;1.85;;;;;;;;;;5071942;28;20053;-66
2022/01/09 15:04:13;;;;;;;5.85;1.90;;;;;;;;;;5072122;28;20115;-65
2022/01/09 15:06:44;;;;;;;2.55;0.80;;;;;;;;;;5072037;28;20049;-66
2022/01/09 15:09:16;;;;;;;7.93;1.65;;;;;;;;;;5072083;28;20060;-65
2022/01/09 15:11:46;;;;;;;5.35;0.90;;;;;;;;;;5055258;28;20095;-67
2022/01/09 15:14:19;;;;;;;2.95;0.82;;;;;;;;;;5039444;28;20064;-65
2022/01/09 15:16:50;;;;;;;3.88;0.82;;;;;;;;;;5023399;28;20053;-66
2022/01/09 15:19:22;;;;;;;4.20;0.80;;;;;;;;;;5054856;28;20158;-66
2022/01/09 15:21:53;;;;;;;2.78;0.73;;;;;;;;;;5039917;28;20499;-68
2022/01/09 15:24:23;;;;;;;5.30;0.95;;;;;;;;;;5015410;28;20072;-66
2022/01/09 15:26:57;;;;;;;3.00;1.00;;;;;;;;;;5031581;28;20049;-66
2022/01/09 15:29:27;;;;;;;3.70;0.82;;;;;;;;;;5019907;28;20050;-65
2022/01/09 15:31:57;;;;;;;6.22;2.35;;;;;;;;;;5011697;28;20054;-66
2022/01/09 15:34:29;;;;;;;3.25;1.02;;;;;;;;;;5012020;28;20061;-66
2022/01/09 15:37:04;;;;;;;3.97;1.23;;;;;;;;;;4980599;28;20055;-65
2022/01/09 15:39:34;;;;;;;;;;;;;;;;;;4964759;28;20154;-67
2022/01/09 15:42:04;;;;;;;4.75;0.90;;;;;;;;;;4963235;28;20427;-68
2022/01/09 15:44:36;;;;;;;2.65;0.80;;;;;;;;;;4979482;28;20046;-65
2022/01/09 15:47:07;;;;;;;1.90;0.73;;;;;;;;;;4995485;28;20049;-65
2022/01/09 15:49:38;;;;;;;2.33;0.90;;;;;;;;;;5011646;28;20066;-66
2022/01/09 15:52:08;;;;;;;5.90;1.30;;;;;;;;;;5010838;28;20069;-65
2022/01/09 15:54:39;;;;;;;3.13;0.77;;;;;;;;;;4962892;28;20057;-68
2022/01/09 15:57:10;;;;;;;6.88;0.82;;;;;;;;;;4924101;28;20051;-65
2022/01/09 15:59:41;;;;;;;2.65;0.90;;;;;;;;;;4972412;28;20058;-66
2022/01/09 16:02:11;;;;;;;2.78;1.02;;;;;;;;;;4994344;28;20057;-65
2022/01/09 16:04:41;;;;;;;4.55;0.75;;;;;;;;;;4995462;28;20050;-65
2022/01/09 16:07:13;;;;;;;4.20;0.63;;;;;;;;;;4968349;28;20057;-63
2022/01/09 16:09:43;;;;;;;1.35;0.77;;;;;;;;;;5050710;28;20053;-65
2022/01/09 16:12:13;;;;;;;2.03;0.95;;;;;;;;;;5034451;28;20056;-65
2022/01/09 16:14:44;;;;;;;3.58;0.95;;;;;;;;;;4985533;28;20061;-64
2022/01/09 16:17:15;;;;;;;4.60;0.80;;;;;;;;;;5018114;28;20064;-64
2022/01/09 16:19:50;;;;;;;4.90;0.77;;;;;;;;;;5017475;28;20057;-65
2022/01/09 16:22:21;;;;;;;3.70;1.15;;;;;;;;;;5001266;28;20049;-65
2022/01/09 16:24:51;;;;;;;5.75;1.42;;;;;;;;;;5050733;28;20048;-64
2022/01/09 16:27:21;;;;;;;5.95;2.88;;;;;;;;;;5050488;28;20053;-70
2022/01/09 16:29:51;;;;;;;10.43;1.13;;;;;;;;;;5050451;28;20068;-65
2022/01/09 16:32:22;;;;;;;2.72;0.73;;;;;;;;;;5050467;28;20077;-67
2022/01/09 16:34:52;;;;;;;2.35;0.73;;;;;;;;;;5064824;28;20440;-65
2022/01/09 16:37:23;;;;;;;3.70;0.93;;;;;;;;;;5079225;28;20490;-65
2022/01/09 16:39:53;;;;;;;4.88;1.13;;;;;;;;;;5079271;28;20051;-69
2022/01/09 16:42:24;;;;;;;3.92;1.23;;;;;;;;;;5081813;28;20052;-66
2022/01/09 16:44:54;;;;;;;3.70;0.80;;;;;;;;;;5037336;28;20052;-64
2022/01/09 16:47:26;;;;;;;7.85;1.23;;;;;;;;;;5074618;28;20423;-67
2022/01/09 16:49:56;;;;;;;;;;;;;;;;;;5018251;28;20064;-66
2022/01/09 16:52:27;;;;;;;4.93;1.30;;;;;;;;;;5052247;28;19931;-65
2022/01/09 16:54:58;;;;;;;4.93;0.90;;;;;;;;;;5017206;28;20057;-66
2022/01/09 16:57:28;;;;;;;4.47;0.80;;;;;;;;;;5051958;28;20044;-66
2022/01/09 16:59:59;;;;;;;3.55;0.95;;;;;;;;;;5051842;28;20045;-65
2022/01/09 17:02:29;;;;;;;5.55;1.52;;;;;;;;;;5060139;28;20048;-66
2022/01/09 17:04:59;;;;;;;3.55;1.05;;;;;;;;;;5066104;28;20527;-66
2022/01/09 17:07:29;;;;;;;4.43;1.10;;;;;;;;;;5066921;28;20447;-66
2022/01/09 17:10:02;;;;;;;3.85;0.95;;;;;;;;;;5063434;28;20056;-65
2022/01/09 17:12:33;;;;;;;5.40;1.80;;;;;;;;;;5072821;28;20040;-69
2022/01/09 17:15:04;;;;;;;5.65;0.77;;;;;;;;;;5066820;28;20052;-66
2022/01/09 17:17:34;;;;;;;2.30;0.82;;;;;;;;;;5080189;28;20048;-67
2022/01/09 17:20:05;;;;;;;4.32;1.15;;;;;;;;;;5043058;28;20037;-66
2022/01/09 17:22:36;;;;;;;4.88;1.10;;;;;;;;;;5017884;28;20068;-66
2022/01/09 17:25:08;;;;;;;4.70;1.17;;;;;;;;;;5040329;28;20049;-65
2022/01/09 17:27:39;;;;;;;2.85;0.65;;;;;;;;;;5032679;28;20068;-65
2022/01/09 17:30:09;;;;;;;2.88;1.05;;;;;;;;;;5047294;28;20049;-66
2022/01/09 17:32:40;;;;;;;2.58;0.80;;;;;;;;;;4975907;28;20056;-67
2022/01/09 17:35:11;;;;;;;1.38;0.68;;;;;;;;;;5018840;28;20524;-66
2022/01/09 17:37:42;;;;;;;2.67;0.75;;;;;;;;;;4985900;28;20456;-66
2022/01/09 17:40:12;;;;;;;1.70;0.82;;;;;;;;;;5017120;28;20062;-66
2022/01/09 17:42:43;;;;;;;6.35;1.20;;;;;;;;;;4979910;28;20053;-64
2022/01/09 17:45:14;;;;;;;2.60;0.73;;;;;;;;;;5028579;28;20507;-66
2022/01/09 17:47:44;;;;;;;3.78;0.95;;;;;;;;;;5026437;28;20053;-66
2022/01/09 17:50:15;;;;;;;2.40;0.65;;;;;;;;;;5009016;28;20064;-66
2022/01/09 17:52:45;;;;;;;2.75;0.80;;;;;;;;;;5018706;28;20533;-65
2022/01/09 17:55:17;;;;;;;2.97;0.57;;;;;;;;;;5017435;28;20061;-66
2022/01/09 17:57:47;;;;;;;2.75;0.73;;;;;;;;;;5019385;28;20393;-65
2022/01/09 18:00:17;;;;;;;4.45;1.52;;;;;;;;;;5020547;28;20097;-66